createdAt,value
2018-11-06T00:00:22.339Z,183.57
2018-11-06T00:02:57.358Z,183.27
2018-11-06T00:05:27.198Z,167.07
2018-11-06T00:07:57.421Z,182.50
2018-11-06T00:10:27.341Z,181.50
2018-11-06T00:12:57.361Z,175.73
2018-11-06T00:15:27.640Z,183.40
2018-11-06T00:17:57.879Z,179.37
2018-11-06T00:20:27.839Z,171.83
2018-11-06T00:22:58.098Z,167.70
2018-11-06T00:25:28.067Z,160.83
2018-11-06T00:27:58.299Z,158.53
2018-11-06T00:30:28.118Z,172.03
2018-11-06T00:32:58.138Z,172.13
2018-11-06T00:35:27.896Z,157.83
2018-11-06T00:37:57.499Z,145.60
2018-11-06T00:40:27.336Z,155.37
2018-11-06T00:42:57.016Z,150.70
2018-11-06T00:45:27.176Z,165.43
2018-11-06T00:47:56.796Z,156.23
2018-11-06T00:50:26.716Z,151.20
2018-11-06T00:52:56.738Z,154.23
2018-11-06T00:55:26.516Z,155.00
2018-11-06T00:57:56.177Z,152.10
2018-11-06T01:00:27.241Z,149.03
2018-11-06T01:02:57.422Z,156.07
2018-11-06T01:05:27.282Z,151.97
2018-11-06T01:07:57.682Z,145.97
2018-11-06T01:10:27.843Z,165.27
2018-11-06T01:12:58.322Z,164.77
2018-11-06T01:15:27.963Z,148.20
2018-11-06T01:17:57.662Z,155.87
2018-11-06T01:20:27.702Z,165.60
2018-11-06T01:22:57.743Z,162.87
2018-11-06T01:25:27.662Z,159.97
2018-11-06T01:27:58.299Z,158.03
2018-11-06T01:30:28.720Z,162.03
2018-11-06T01:32:58.318Z,162.53
2018-11-06T01:35:35.725Z,156.43
2018-11-06T01:38:05.407Z,142.63
2018-11-06T01:40:36.739Z,155.53
2018-11-06T01:43:06.778Z,153.00
2018-11-06T01:45:36.479Z,145.07
2018-11-06T01:48:06.922Z,141.77
2018-11-06T01:50:37.318Z,151.37
2018-11-06T01:53:07.400Z,148.23
2018-11-06T01:55:37.118Z,139.00
2018-11-06T01:58:07.044Z,132.23
2018-11-06T02:00:37.134Z,149.53
2018-11-06T02:03:07.054Z,142.07
2018-11-06T02:05:36.674Z,142.97
2018-11-06T02:08:06.715Z,139.60
2018-11-06T02:10:36.514Z,148.33
2018-11-06T02:13:07.397Z,133.37
2018-11-06T02:15:37.196Z,133.80
2018-11-06T02:18:07.802Z,145.03
2018-11-06T02:20:37.895Z,140.93
2018-11-06T02:23:07.637Z,134.27
2018-11-06T02:25:37.776Z,143.70
2018-11-06T02:28:08.255Z,125.73
2018-11-06T02:30:38.797Z,128.30
2018-11-06T02:33:08.496Z,128.47
2018-11-06T02:35:45.135Z,127.03
2018-11-06T02:38:15.199Z,129.27
2018-11-06T02:40:45.036Z,120.23
2018-11-06T02:43:15.476Z,123.03
2018-11-06T02:45:45.676Z,120.50
2018-11-06T02:48:15.494Z,128.00
2018-11-06T02:50:52.494Z,123.50
2018-11-06T02:53:22.655Z,112.83
2018-11-06T02:55:52.373Z,123.20
2018-11-06T02:58:26.835Z,117.07
2018-11-06T03:00:57.196Z,115.87
2018-11-06T03:03:26.858Z,120.07
2018-11-06T03:05:56.696Z,114.67
2018-11-06T03:08:26.296Z,108.37
2018-11-06T03:11:00.736Z,116.70
2018-11-06T03:13:30.677Z,108.43
2018-11-06T03:16:00.416Z,99.20
2018-11-06T03:18:29.996Z,107.03
2018-11-06T03:20:59.656Z,106.87
2018-11-06T03:23:29.777Z,101.73
2018-11-06T03:25:59.343Z,101.47
2018-11-06T03:28:28.876Z,112.03
2018-11-06T03:30:58.316Z,108.60
2018-11-06T03:33:31.876Z,90.50
2018-11-06T03:36:01.696Z,105.63
2018-11-06T03:38:34.619Z,111.87
2018-11-06T03:41:06.158Z,103.37
2018-11-06T03:43:36.996Z,108.67
2018-11-06T03:46:10.999Z,109.83
2018-11-06T03:48:40.556Z,110.93
2018-11-06T03:51:10.881Z,119.83
2018-11-06T03:53:40.539Z,114.83
2018-11-06T03:56:10.757Z,113.40
2018-11-06T03:58:40.777Z,118.80
2018-11-06T04:01:10.442Z,104.57
2018-11-06T04:03:40.296Z,108.20
2018-11-06T04:06:10.377Z,108.83
2018-11-06T04:08:39.980Z,124.93
2018-11-06T04:11:10.596Z,117.53
2018-11-06T04:13:40.276Z,125.17
2018-11-06T04:16:14.998Z,121.30
2018-11-06T04:18:45.255Z,124.67
2018-11-06T04:21:14.916Z,125.40
2018-11-06T04:23:45.257Z,112.03
2018-11-06T04:26:14.857Z,130.17
2018-11-06T04:28:45.196Z,116.73
2018-11-06T04:33:49.260Z,122.33
2018-11-06T04:36:18.977Z,121.73
2018-11-06T04:38:49.097Z,117.60
2018-11-06T04:41:19.117Z,128.53
2018-11-06T04:43:48.976Z,129.47
2018-11-06T04:46:18.536Z,130.77
2018-11-06T04:48:48.397Z,114.30
2018-11-06T04:51:22.577Z,111.67
2018-11-06T04:53:56.616Z,122.20
2018-11-06T04:56:26.985Z,127.43
2018-11-06T04:58:57.216Z,108.33
2018-11-06T05:01:28.888Z,133.37
2018-11-06T05:03:59.983Z,120.03
2018-11-06T05:06:29.864Z,120.23
2018-11-06T05:08:59.643Z,114.57
2018-11-06T05:11:30.066Z,111.90
2018-11-06T05:14:00.519Z,122.40
2018-11-06T05:16:30.202Z,137.53
2018-11-06T05:18:59.662Z,132.57
2018-11-06T05:21:30.384Z,121.47
2018-11-06T05:24:00.384Z,118.60
2018-11-06T05:26:30.004Z,124.00
2018-11-06T05:29:00.183Z,129.60
2018-11-06T05:31:30.005Z,134.30
2018-11-06T05:34:03.163Z,126.67
2018-11-06T05:36:33.343Z,128.60
2018-11-06T05:39:03.161Z,132.57
2018-11-06T05:41:33.482Z,127.23
2018-11-06T05:44:04.104Z,135.77
2018-11-06T05:46:33.782Z,126.33
2018-11-06T05:49:03.701Z,135.70
2018-11-06T05:51:33.899Z,140.30
2018-11-06T05:54:03.605Z,133.10
2018-11-06T05:56:33.219Z,142.90
2018-11-06T05:59:02.839Z,160.33
2018-11-06T06:01:32.997Z,151.70
2018-11-06T06:04:07.137Z,149.33
2018-11-06T06:06:36.937Z,152.83
2018-11-06T06:09:08.938Z,136.83
2018-11-06T06:11:38.698Z,137.60
2018-11-06T06:14:09.099Z,133.83
2018-11-06T06:16:38.843Z,128.37
2018-11-06T06:19:08.322Z,122.27
2018-11-06T06:21:38.819Z,111.27
2018-11-06T06:24:08.396Z,112.07
2018-11-06T06:26:40.676Z,93.87
2018-11-06T06:29:09.914Z,104.93
2018-11-06T06:31:40.239Z,96.23
2018-11-06T06:34:10.755Z,97.20
2018-11-06T06:36:40.557Z,95.80
2018-11-06T06:39:17.898Z,98.87
2018-11-06T06:41:47.456Z,95.13
2018-11-06T06:44:17.416Z,87.10
2018-11-06T06:46:47.036Z,87.07
2018-11-06T06:49:17.380Z,69.70
2018-11-06T06:51:47.516Z,77.27
2018-11-06T06:54:17.193Z,76.70
2018-11-06T06:56:51.059Z,67.47
2018-11-06T06:59:20.716Z,66.60
2018-11-06T07:01:50.819Z,60.73
2018-11-06T07:04:20.440Z,54.70
2018-11-06T07:06:50.699Z,56.07
2018-11-06T07:09:20.339Z,62.67
2018-11-06T07:11:53.047Z,57.73
2018-11-06T07:14:22.538Z,56.47
2018-11-06T07:16:59.017Z,55.27
2018-11-06T07:19:28.757Z,54.00
2018-11-06T07:21:58.636Z,55.63
2018-11-06T07:24:28.096Z,51.50
2018-11-06T07:27:02.478Z,46.60
2018-11-06T07:29:32.900Z,50.87
2018-11-06T07:32:03.216Z,43.37
2018-11-06T07:34:37.200Z,50.87
2018-11-06T07:37:07.065Z,47.97
2018-11-06T07:39:36.756Z,48.20
2018-11-06T07:42:06.322Z,45.27
2018-11-06T07:44:37.888Z,48.50
2018-11-06T07:47:07.416Z,43.00
2018-11-06T07:49:36.752Z,50.20
2018-11-06T07:52:07.025Z,46.67
2018-11-06T07:54:36.438Z,45.93
2018-11-06T07:57:06.775Z,43.77
2018-11-06T07:59:36.275Z,47.57
2018-11-06T08:02:07.435Z,45.40
2018-11-06T08:04:36.915Z,48.20
2018-11-06T08:07:06.615Z,48.93
2018-11-06T08:09:36.286Z,43.00
2018-11-06T08:12:06.275Z,44.13
2018-11-06T08:14:35.991Z,48.07
2018-11-06T08:17:05.815Z,45.33
2018-11-06T08:19:37.394Z,42.70
2018-11-06T08:22:07.174Z,48.57
2018-11-06T08:24:36.613Z,47.13
2018-11-06T08:27:06.266Z,47.77
2018-11-06T08:29:35.836Z,45.70
2018-11-06T08:32:05.632Z,47.70
2018-11-06T08:34:35.018Z,42.80
2018-11-06T08:37:04.691Z,48.23
2018-11-06T08:39:33.981Z,40.53
2018-11-06T08:42:03.415Z,46.63
2018-11-06T08:44:32.897Z,46.50
2018-11-06T08:47:04.434Z,45.77
2018-11-06T08:49:33.817Z,41.60
2018-11-06T08:52:03.308Z,45.53
2018-11-06T08:54:37.554Z,44.60
2018-11-06T08:57:07.055Z,42.07
2018-11-06T08:59:36.541Z,41.00
2018-11-06T09:02:08.221Z,41.97
2018-11-06T09:04:37.447Z,43.43
2018-11-06T09:07:07.260Z,41.93
2018-11-06T09:09:36.621Z,42.63
2018-11-06T09:12:06.461Z,38.17
2018-11-06T09:14:35.849Z,39.37
2018-11-06T09:17:05.610Z,39.07
2018-11-06T09:19:36.120Z,38.57
2018-11-06T09:22:05.900Z,44.67
2018-11-06T09:24:35.541Z,36.80
2018-11-06T09:27:05.062Z,38.70
2018-11-06T09:29:34.621Z,36.07
2018-11-06T09:32:04.221Z,40.07
2018-11-06T09:34:34.160Z,38.60
2018-11-06T09:37:03.761Z,33.23
2018-11-06T09:39:33.780Z,35.97
2018-11-06T09:42:03.460Z,34.97
2018-11-06T09:47:02.620Z,35.27
2018-11-06T09:49:32.521Z,34.57
2018-11-06T09:52:02.294Z,31.47
2018-11-06T09:54:32.480Z,32.07
2018-11-06T09:57:02.341Z,32.83
2018-11-06T09:59:31.880Z,33.03
2018-11-06T10:02:06.225Z,33.70
2018-11-06T10:04:35.976Z,30.17
2018-11-06T10:07:06.021Z,32.80
2018-11-06T10:09:35.436Z,26.73
2018-11-06T10:12:05.517Z,28.50
2018-11-06T10:14:35.315Z,33.33
2018-11-06T10:17:05.215Z,29.00
2018-11-06T10:19:34.878Z,28.33
2018-11-06T10:22:04.595Z,30.83
2018-11-06T10:24:34.135Z,27.60
2018-11-06T10:27:03.815Z,28.67
2018-11-06T10:29:33.454Z,32.83
2018-11-06T10:32:03.335Z,30.03
2018-11-06T10:34:32.776Z,38.57
2018-11-06T10:37:02.735Z,32.33
2018-11-06T10:39:33.677Z,33.13
2018-11-06T10:42:03.255Z,34.27
2018-11-06T10:44:33.044Z,33.00
2018-11-06T10:47:02.815Z,31.33
2018-11-06T10:49:36.675Z,30.73
2018-11-06T10:52:06.515Z,32.37
2018-11-06T10:54:36.315Z,31.87
2018-11-06T10:57:06.015Z,30.77
2018-11-06T10:59:35.595Z,28.93
2018-11-06T11:02:13.493Z,30.20
2018-11-06T11:04:47.184Z,32.23
2018-11-06T11:07:19.136Z,30.30
2018-11-06T11:09:48.938Z,33.33
2018-11-06T11:12:20.834Z,29.53
2018-11-06T11:14:50.335Z,31.37
2018-11-06T11:17:23.435Z,30.80
2018-11-06T11:19:52.874Z,32.47
2018-11-06T11:22:22.629Z,34.43
2018-11-06T11:24:52.615Z,30.07
2018-11-06T11:27:23.916Z,34.13
2018-11-06T11:29:53.615Z,34.93
2018-11-06T11:32:23.114Z,29.53
2018-11-06T11:34:52.775Z,31.70
2018-11-06T11:37:22.276Z,31.50
2018-11-06T11:39:51.639Z,35.67
2018-11-06T11:42:21.017Z,31.80
2018-11-06T11:44:50.902Z,37.60
2018-11-06T11:47:21.977Z,31.80
2018-11-06T11:49:51.834Z,38.67
2018-11-06T11:52:21.358Z,36.70
2018-11-06T11:54:50.998Z,36.50
2018-11-06T11:57:21.297Z,42.80
2018-11-06T11:59:50.911Z,38.13
2018-11-06T12:02:28.015Z,39.20
2018-11-06T12:04:57.832Z,37.73
2018-11-06T12:07:27.495Z,37.80
2018-11-06T12:09:56.896Z,41.67
2018-11-06T12:12:33.945Z,36.33
2018-11-06T12:15:09.121Z,39.53
2018-11-06T12:17:39.238Z,38.63
2018-11-06T12:20:08.856Z,43.90
2018-11-06T12:22:39.137Z,47.73
2018-11-06T12:25:09.088Z,47.37
2018-11-06T12:27:39.256Z,52.17
2018-11-06T12:30:11.015Z,48.73
2018-11-06T12:32:41.224Z,53.07
2018-11-06T12:35:11.836Z,47.50
2018-11-06T12:37:41.595Z,44.03
2018-11-06T12:40:12.198Z,46.77
2018-11-06T12:42:42.236Z,43.83
2018-11-06T12:45:13.216Z,47.00
2018-11-06T12:47:43.075Z,47.00
2018-11-06T12:50:12.759Z,47.40
2018-11-06T12:52:42.658Z,47.40
2018-11-06T12:55:13.676Z,46.73
2018-11-06T12:57:43.155Z,48.20
2018-11-06T13:00:16.897Z,46.07
2018-11-06T13:02:46.777Z,47.70
2018-11-06T13:05:29.134Z,49.43
2018-11-06T13:07:58.853Z,43.57
2018-11-06T13:10:28.819Z,48.93
2018-11-06T13:12:58.236Z,52.87
2018-11-06T13:15:27.748Z,48.80
2018-11-06T13:17:57.380Z,47.80
2018-11-06T13:20:30.922Z,48.00
2018-11-06T13:23:00.220Z,49.73
2018-11-06T13:25:30.069Z,50.67
2018-11-06T13:27:59.621Z,50.07
2018-11-06T13:30:35.154Z,51.87
2018-11-06T13:33:04.779Z,49.97
2018-11-06T13:35:34.635Z,51.30
2018-11-06T13:38:04.758Z,56.37
2018-11-06T13:40:34.275Z,52.23
2018-11-06T13:43:03.899Z,55.53
2018-11-06T13:45:33.627Z,58.53
2018-11-06T13:48:03.202Z,57.60
2018-11-06T13:50:33.264Z,57.73
2018-11-06T13:53:02.675Z,59.53
2018-11-06T13:55:31.978Z,57.27
2018-11-06T13:58:07.209Z,52.57
2018-11-06T14:00:36.667Z,55.43
2018-11-06T14:03:06.702Z,55.73
2018-11-06T14:05:36.488Z,54.43
2018-11-06T14:08:06.554Z,54.00
2018-11-06T14:10:36.180Z,52.40
2018-11-06T14:13:06.369Z,58.73
2018-11-06T14:15:36.160Z,54.30
2018-11-06T14:18:05.877Z,57.60
2018-11-06T14:20:35.599Z,56.10
2018-11-06T14:23:09.203Z,55.40
2018-11-06T14:25:38.714Z,49.33
2018-11-06T14:28:08.065Z,53.87
2018-11-06T14:30:37.745Z,55.83
2018-11-06T14:33:07.579Z,50.87
2018-11-06T14:35:37.364Z,58.13
2018-11-06T14:38:07.179Z,53.20
2018-11-06T14:40:36.959Z,58.50
2018-11-06T14:43:06.497Z,58.13
2018-11-06T14:45:36.420Z,59.93
2018-11-06T14:48:06.573Z,59.60
2018-11-06T14:50:35.983Z,60.03
2018-11-06T14:53:06.023Z,62.27
2018-11-06T14:55:35.751Z,56.10
2018-11-06T14:58:11.037Z,63.53
2018-11-06T15:00:40.796Z,59.77
2018-11-06T15:03:11.959Z,61.03
2018-11-06T15:05:43.075Z,64.37
2018-11-06T15:08:17.075Z,66.50
2018-11-06T15:10:46.737Z,62.87
2018-11-06T15:13:17.740Z,62.67
2018-11-06T15:15:47.238Z,65.83
2018-11-06T15:18:17.336Z,72.00
2018-11-06T15:20:47.313Z,65.67
2018-11-06T15:23:17.279Z,66.70
2018-11-06T15:25:47.059Z,71.63
2018-11-06T15:28:17.151Z,71.23
2018-11-06T15:30:46.718Z,73.87
2018-11-06T15:33:18.527Z,71.03
2018-11-06T15:35:48.088Z,73.77
2018-11-06T15:38:21.268Z,77.60
2018-11-06T15:40:51.674Z,79.73
2018-11-06T15:43:21.865Z,76.87
2018-11-06T15:45:51.905Z,85.60
2018-11-06T15:48:22.088Z,76.37
2018-11-06T15:50:53.441Z,84.03
2018-11-06T15:53:23.139Z,77.63
2018-11-06T15:55:53.340Z,71.87
2018-11-06T15:58:23.591Z,73.30
2018-11-06T16:00:54.561Z,80.33
2018-11-06T16:03:24.622Z,79.90
2018-11-06T16:05:54.203Z,84.17
2018-11-06T16:08:31.253Z,78.17
2018-11-06T16:11:01.938Z,83.63
2018-11-06T16:13:31.799Z,85.33
2018-11-06T16:16:01.696Z,79.20
2018-11-06T16:18:31.676Z,85.70
2018-11-06T16:21:05.869Z,83.93
2018-11-06T16:23:35.608Z,93.00
2018-11-06T16:26:05.419Z,91.50
2018-11-06T16:28:35.218Z,98.63
2018-11-06T16:31:04.760Z,92.50
2018-11-06T16:33:35.224Z,87.47
2018-11-06T16:36:04.941Z,96.67
2018-11-06T16:38:34.798Z,94.80
2018-11-06T16:41:09.019Z,96.43
2018-11-06T16:43:38.635Z,98.37
2018-11-06T16:46:08.439Z,95.27
2018-11-06T16:48:38.017Z,86.07
2018-11-06T16:51:07.795Z,102.10
2018-11-06T16:53:37.919Z,95.53
2018-11-06T16:56:08.790Z,103.40
2018-11-06T16:58:38.856Z,99.17
2018-11-06T17:01:09.116Z,101.23
2018-11-06T17:03:38.378Z,101.23
2018-11-06T17:06:12.294Z,98.77
2018-11-06T17:08:42.159Z,89.40
2018-11-06T17:11:11.878Z,85.47
2018-11-06T17:13:45.137Z,83.70
2018-11-06T17:16:14.838Z,82.90
2018-11-06T17:18:44.878Z,81.93
2018-11-06T17:21:14.662Z,82.97
2018-11-06T17:23:44.500Z,96.40
2018-11-06T17:26:14.540Z,96.20
2018-11-06T17:28:44.177Z,100.03
2018-11-06T17:31:14.019Z,110.47
2018-11-06T17:33:43.535Z,106.73
2018-11-06T17:36:13.239Z,101.57
2018-11-06T17:38:43.430Z,103.93
2018-11-06T17:41:13.058Z,112.23
2018-11-06T17:43:42.717Z,108.70
2018-11-06T17:46:12.545Z,96.57
2018-11-06T17:48:41.990Z,109.87
2018-11-06T17:51:11.816Z,104.77
2018-11-06T17:53:43.800Z,115.13
2018-11-06T17:56:28.744Z,110.00
2018-11-06T17:58:59.123Z,113.50
2018-11-06T18:01:29.538Z,105.70
2018-11-06T18:03:59.196Z,119.03
2018-11-06T18:06:30.314Z,122.90
2018-11-06T18:09:22.339Z,115.70
2018-11-06T18:11:53.151Z,123.87
2018-11-06T18:14:22.844Z,123.90
2018-11-06T18:16:52.360Z,134.80
2018-11-06T18:19:22.647Z,143.17
2018-11-06T18:21:52.616Z,150.27
2018-11-06T18:24:22.402Z,152.40
2018-11-06T18:26:53.382Z,149.90
2018-11-06T18:29:23.116Z,143.53
2018-11-06T18:31:53.490Z,156.23
2018-11-06T18:34:23.622Z,158.57
2018-11-06T18:36:53.825Z,167.43
2018-11-06T18:39:24.018Z,167.40
2018-11-06T18:41:54.384Z,158.37
2018-11-06T18:44:24.555Z,164.17
2018-11-06T18:46:54.799Z,149.80
2018-11-06T18:49:25.519Z,151.40
2018-11-06T18:51:55.919Z,154.97
2018-11-06T18:54:25.974Z,164.57
2018-11-06T18:56:56.096Z,159.70
2018-11-06T18:59:30.581Z,149.53
2018-11-06T19:02:00.719Z,154.00
2018-11-06T19:04:31.241Z,146.97
2018-11-06T19:07:04.137Z,150.40
2018-11-06T19:09:34.637Z,139.97
2018-11-06T19:12:04.637Z,138.80
2018-11-06T19:14:34.557Z,136.23
2018-11-06T19:17:04.593Z,139.63
2018-11-06T19:19:34.796Z,142.03
2018-11-06T19:22:05.572Z,137.37
2018-11-06T19:24:36.287Z,134.87
2018-11-06T19:27:06.696Z,141.70
2018-11-06T19:29:37.200Z,143.37
2018-11-06T19:32:11.317Z,140.47
2018-11-06T19:34:41.977Z,149.17
2018-11-06T19:37:16.162Z,136.90
2018-11-06T19:39:46.181Z,140.87
2018-11-06T19:42:16.458Z,141.87
2018-11-06T19:44:46.943Z,150.83
2018-11-06T19:47:17.699Z,142.77
2018-11-06T19:49:48.986Z,149.30
2018-11-06T19:52:19.639Z,145.10
2018-11-06T19:54:50.058Z,153.60
2018-11-06T19:57:20.714Z,170.13
2018-11-06T19:59:51.503Z,156.90
2018-11-06T20:02:24.159Z,173.93
2018-11-06T20:04:56.168Z,176.10
2018-11-06T20:07:27.618Z,174.63
2018-11-06T20:09:59.765Z,184.37
2018-11-06T20:12:31.843Z,172.13
2018-11-06T20:15:02.484Z,179.53
2018-11-06T20:17:38.364Z,184.57
2018-11-06T20:20:14.200Z,207.93
2018-11-06T20:22:48.301Z,212.23
2018-11-06T20:25:22.066Z,208.03
2018-11-06T20:27:53.978Z,197.83
2018-11-06T20:30:27.304Z,228.27
2018-11-06T20:32:58.127Z,233.00
2018-11-06T20:35:28.917Z,218.03
2018-11-06T20:38:00.608Z,213.90
2018-11-06T20:40:30.966Z,212.67
2018-11-06T20:43:02.421Z,222.93
2018-11-06T20:45:35.275Z,231.90
2018-11-06T20:48:06.779Z,226.03
2018-11-06T20:50:38.890Z,236.77
2018-11-06T20:53:09.183Z,227.50
2018-11-06T20:55:42.977Z,242.43
2018-11-06T20:58:14.578Z,233.00
2018-11-06T21:00:46.301Z,242.37
2018-11-06T21:03:17.181Z,242.60
2018-11-06T21:05:47.941Z,236.87
2018-11-06T21:08:18.540Z,237.90
2018-11-06T21:10:49.404Z,232.90
2018-11-06T21:13:28.003Z,213.93
2018-11-06T21:15:58.222Z,232.47
2018-11-06T21:18:29.390Z,240.77
2018-11-06T21:21:18.180Z,254.53
2018-11-06T21:23:48.277Z,227.97
2018-11-06T21:26:18.971Z,251.07
2018-11-06T21:28:49.097Z,254.20
2018-11-06T21:31:19.426Z,256.07
2018-11-06T21:33:53.833Z,257.63
2018-11-06T21:36:24.522Z,244.00
2018-11-06T21:38:55.131Z,231.90
2018-11-06T21:41:24.715Z,233.40
2018-11-06T21:43:54.335Z,227.30
2018-11-06T21:46:24.055Z,218.37
2018-11-06T21:48:53.895Z,225.47
2018-11-06T21:51:23.896Z,239.27
2018-11-06T21:53:57.317Z,225.10
2018-11-06T21:56:26.816Z,226.90
2018-11-06T21:58:57.478Z,218.73
2018-11-06T22:01:26.854Z,200.97
2018-11-06T22:04:01.374Z,206.97
2018-11-06T22:06:30.914Z,212.57
2018-11-06T22:09:00.394Z,194.57
2018-11-06T22:11:30.919Z,196.17
2018-11-06T22:14:01.836Z,203.00
2018-11-06T22:16:32.833Z,189.77
2018-11-06T22:19:02.194Z,207.87
2018-11-06T22:21:35.287Z,196.57
2018-11-06T22:24:04.755Z,199.70
2018-11-06T22:26:34.176Z,205.47
2018-11-06T22:29:03.694Z,203.67
2018-11-06T22:31:37.655Z,198.63
2018-11-06T22:34:07.418Z,211.63
2018-11-06T22:36:36.872Z,198.90
2018-11-06T22:39:10.141Z,204.80
2018-11-06T22:41:39.993Z,190.70
2018-11-06T22:44:09.874Z,189.30
2018-11-06T22:46:39.321Z,201.90
2018-11-06T22:49:08.701Z,190.57
2018-11-06T22:51:37.954Z,191.13
2018-11-06T22:54:08.032Z,188.27
2018-11-06T22:56:37.634Z,197.73
2018-11-06T22:59:07.434Z,190.40
2018-11-06T23:01:36.955Z,181.30
2018-11-06T23:04:10.636Z,188.20
2018-11-06T23:06:40.155Z,166.87
2018-11-06T23:09:10.975Z,176.37
2018-11-06T23:11:41.015Z,167.60
2018-11-06T23:14:10.314Z,168.87
2018-11-06T23:16:39.795Z,168.43
2018-11-06T23:19:09.294Z,174.07
2018-11-06T23:21:38.595Z,175.63
2018-11-06T23:24:08.036Z,170.17
2018-11-06T23:26:37.396Z,164.73
2018-11-06T23:29:06.896Z,170.17
2018-11-06T23:31:38.775Z,171.07
2018-11-06T23:34:08.236Z,172.10
2018-11-06T23:36:37.772Z,176.40
2018-11-06T23:39:09.015Z,171.30
2018-11-06T23:41:38.475Z,180.23
2018-11-06T23:44:07.837Z,175.67
2018-11-06T23:46:41.235Z,170.70
2018-11-06T23:49:10.595Z,177.20
2018-11-06T23:51:39.906Z,169.43
2018-11-06T23:54:09.298Z,164.90
2018-11-06T23:56:38.873Z,169.97
2018-11-06T23:59:08.296Z,162.67
